createdAt,value
2023-04-16T00:01:16.883Z,100730.50
2023-04-16T00:06:18.575Z,100728.56
2023-04-16T00:11:25.181Z,100734.72
2023-04-16T00:16:29.779Z,100728.03
2023-04-16T00:21:31.491Z,100725.31
2023-04-16T00:26:34.570Z,100717.75
2023-04-16T00:31:39.375Z,100727.00
2023-04-16T00:36:46.720Z,100719.66
2023-04-16T00:41:53.668Z,100724.78
2023-04-16T00:46:56.104Z,100723.78
2023-04-16T00:52:06.725Z,100715.00
2023-04-16T00:57:12.986Z,100717.47
2023-04-16T01:02:18.792Z,100732.78
2023-04-16T01:07:26.371Z,100719.00
2023-04-16T01:12:37.513Z,100729.41
2023-04-16T01:17:41.763Z,100739.06
2023-04-16T01:22:46.407Z,100741.91
2023-04-16T01:27:49.355Z,100735.22
2023-04-16T01:32:53.237Z,100737.13
2023-04-16T01:38:03.260Z,100740.84
2023-04-16T01:43:04.853Z,100750.00
2023-04-16T01:48:10.691Z,100752.38
2023-04-16T01:53:20.780Z,100770.66
2023-04-16T01:58:22.745Z,100774.50
2023-04-16T02:03:27.199Z,100782.47
2023-04-16T02:08:33.429Z,100784.53
2023-04-16T02:13:37.057Z,100788.50
2023-04-16T02:18:43.094Z,100789.41
2023-04-16T02:23:46.969Z,100791.47
2023-04-16T02:28:51.764Z,100784.66
2023-04-16T02:34:02.388Z,100782.09
2023-04-16T02:39:07.150Z,100793.41
2023-04-16T02:44:08.977Z,100792.13
2023-04-16T02:49:12.881Z,100797.91
2023-04-16T02:54:18.750Z,100794.00
2023-04-16T02:59:23.551Z,100786.44
2023-04-16T03:04:25.263Z,100792.69
2023-04-16T03:09:33.994Z,100789.75
2023-04-16T03:14:37.114Z,100801.09
2023-04-16T03:19:43.121Z,100790.28
2023-04-16T03:25:05.558Z,100793.13
2023-04-16T03:30:13.398Z,100794.28
2023-04-16T03:35:15.074Z,100794.66
2023-04-16T03:40:19.891Z,100798.28
2023-04-16T03:45:30.495Z,100803.53
2023-04-16T03:50:33.041Z,100803.41
2023-04-16T03:55:36.645Z,100805.34
2023-04-16T04:00:43.426Z,100815.03
2023-04-16T04:05:48.843Z,100819.16
2023-04-16T04:10:58.492Z,100824.00
2023-04-16T04:16:03.296Z,100824.66
2023-04-16T04:21:07.702Z,100822.50
2023-04-16T04:26:10.791Z,100831.75
2023-04-16T04:31:12.667Z,100830.13
2023-04-16T04:36:15.148Z,100828.47
2023-04-16T04:41:18.740Z,100827.28
2023-04-16T04:46:21.940Z,100831.41
2023-04-16T04:51:24.869Z,100828.28
2023-04-16T04:56:30.226Z,100832.38
2023-04-16T05:01:31.900Z,100843.59
2023-04-16T05:06:35.570Z,100847.97
2023-04-16T05:11:42.311Z,100849.94
2023-04-16T05:16:45.617Z,100852.25
2023-04-16T05:21:52.357Z,100864.78
2023-04-16T05:26:55.471Z,100869.03
2023-04-16T05:31:57.534Z,100887.25
2023-04-16T05:37:00.433Z,100877.50
2023-04-16T05:42:14.873Z,100879.72
2023-04-16T05:47:19.131Z,100891.97
2023-04-16T05:52:23.908Z,100883.88
2023-04-16T05:57:31.618Z,100894.81
2023-04-16T06:02:33.582Z,100884.16
2023-04-16T06:07:39.780Z,100892.44
2023-04-16T06:12:44.100Z,100894.66
2023-04-16T06:17:45.779Z,100894.72
2023-04-16T06:22:47.744Z,100886.34
2023-04-16T06:27:58.316Z,100888.03
2023-04-16T06:33:00.077Z,100891.50
2023-04-16T06:38:04.688Z,100889.56
2023-04-16T06:43:10.517Z,100894.97
2023-04-16T06:48:12.490Z,100896.34
2023-04-16T06:53:17.076Z,100902.47
2023-04-16T06:58:20.085Z,100900.19
2023-04-16T07:03:25.556Z,100895.91
2023-04-16T07:08:30.352Z,100896.13
2023-04-16T07:13:33.383Z,100901.25
2023-04-16T07:18:36.791Z,100902.03
2023-04-16T07:23:38.753Z,100903.56
2023-04-16T07:28:45.034Z,100906.75
2023-04-16T07:33:49.080Z,100905.25
2023-04-16T07:38:50.748Z,100912.34
2023-04-16T07:43:56.496Z,100920.84
2023-04-16T07:48:58.176Z,100923.25
2023-04-16T07:53:59.912Z,100927.63
2023-04-16T07:59:14.836Z,100931.53
2023-04-16T08:04:23.557Z,100943.91
2023-04-16T08:09:26.870Z,100961.28
2023-04-16T08:14:30.089Z,100965.31
2023-04-16T08:19:33.760Z,100963.88
2023-04-16T08:24:35.837Z,100957.47
2023-04-16T08:29:41.878Z,100977.66
2023-04-16T08:34:45.393Z,100981.63
2023-04-16T08:39:53.159Z,100984.47
2023-04-16T08:45:06.090Z,100990.41
2023-04-16T08:50:09.362Z,100992.84
2023-04-16T08:55:15.140Z,100995.06
2023-04-16T09:00:22.386Z,101004.13
2023-04-16T09:05:24.702Z,101007.25
2023-04-16T09:10:27.491Z,101008.81
2023-04-16T09:15:34.981Z,101008.97
2023-04-16T09:20:38.629Z,100999.69
2023-04-16T09:25:40.368Z,101011.94
2023-04-16T09:30:46.151Z,101009.03
2023-04-16T09:35:48.593Z,101008.38
2023-04-16T09:41:05.895Z,101015.59
2023-04-16T09:46:14.226Z,101021.56
2023-04-16T09:51:20.480Z,101024.50
2023-04-16T09:56:26.554Z,101023.59
2023-04-16T10:01:30.668Z,101039.47
2023-04-16T10:06:32.647Z,101042.97
2023-04-16T10:11:37.931Z,101039.13
2023-04-16T10:16:44.756Z,101035.00
2023-04-16T10:21:54.563Z,101045.81
2023-04-16T10:26:56.494Z,101042.19
2023-04-16T10:32:00.024Z,101015.47
2023-04-16T10:37:09.477Z,101042.56
2023-04-16T10:42:14.698Z,101049.28
2023-04-16T10:47:26.312Z,101052.25
2023-04-16T10:52:29.293Z,101053.94
2023-04-16T10:57:32.122Z,101058.75
2023-04-16T11:02:40.640Z,101061.31
2023-04-16T11:07:49.420Z,101048.91
2023-04-16T11:12:51.949Z,101062.72
2023-04-16T11:17:57.080Z,101066.97
2023-04-16T11:23:03.436Z,101066.44
2023-04-16T11:28:10.113Z,101059.75
2023-04-16T11:33:13.095Z,101064.00
2023-04-16T11:38:18.117Z,101065.56
2023-04-16T11:43:22.394Z,101062.69
2023-04-16T11:48:53.112Z,101066.19
2023-04-16T11:54:00.718Z,101063.41
2023-04-16T11:59:16.537Z,101065.66
2023-04-16T12:04:28.414Z,101061.72
2023-04-16T12:09:42.344Z,101047.56
2023-04-16T12:14:57.313Z,101061.97
2023-04-16T12:20:03.488Z,101065.91
2023-04-16T12:25:06.676Z,101066.94
2023-04-16T12:30:12.175Z,101070.84
2023-04-16T12:35:31.183Z,101065.91
2023-04-16T12:40:33.610Z,101070.97
2023-04-16T12:45:35.328Z,101071.34
2023-04-16T12:50:38.835Z,101072.00
2023-04-16T12:55:40.914Z,101071.31
2023-04-16T13:00:45.388Z,101069.91
2023-04-16T13:05:51.009Z,101074.94
2023-04-16T13:10:52.764Z,101071.56
2023-04-16T13:15:59.077Z,101077.88
2023-04-16T13:21:05.315Z,101075.41
2023-04-16T13:26:09.630Z,101075.25
2023-04-16T13:31:16.588Z,101071.22
2023-04-16T13:36:19.756Z,101067.66
2023-04-16T13:41:25.602Z,101081.09
2023-04-16T13:46:29.424Z,101081.41
2023-04-16T13:51:33.109Z,101079.94
2023-04-16T13:56:34.834Z,101077.69
2023-04-16T14:01:45.069Z,101073.00
2023-04-16T14:06:51.599Z,101065.75
2023-04-16T14:11:54.418Z,101065.88
2023-04-16T14:16:59.365Z,101072.47
2023-04-16T14:22:08.752Z,101064.25
2023-04-16T14:27:12.232Z,101068.00
2023-04-16T14:32:14.391Z,101073.66
2023-04-16T14:37:17.809Z,101075.78
2023-04-16T14:42:21.032Z,101068.31
2023-04-16T14:47:25.453Z,101065.31
2023-04-16T14:52:34.098Z,101062.59
2023-04-16T14:57:38.041Z,101056.19
2023-04-16T15:02:39.868Z,101071.63
2023-04-16T15:07:43.026Z,101072.81
2023-04-16T15:12:48.110Z,101074.63
2023-04-16T15:17:52.757Z,101076.00
2023-04-16T15:22:58.883Z,101074.78
2023-04-16T15:28:03.067Z,101078.50
2023-04-16T15:33:09.426Z,101077.03
2023-04-16T15:38:12.522Z,101080.88
2023-04-16T15:43:17.603Z,101076.59
2023-04-16T15:48:24.801Z,101077.03
2023-04-16T15:53:30.615Z,101088.88
2023-04-16T15:58:37.760Z,101085.13
2023-04-16T16:03:39.565Z,101094.03
2023-04-16T16:08:48.734Z,101094.00
2023-04-16T16:13:50.730Z,101093.34
2023-04-16T16:18:55.029Z,101102.59
2023-04-16T16:24:05.672Z,101099.56
2023-04-16T16:29:17.793Z,101096.06
2023-04-16T16:34:23.567Z,101104.75
2023-04-16T16:39:28.505Z,101103.31
2023-04-16T16:44:32.011Z,101113.69
2023-04-16T16:49:36.724Z,101102.25
2023-04-16T16:54:44.945Z,101107.84
2023-04-16T16:59:48.673Z,101099.13
2023-04-16T17:04:52.486Z,101127.41
2023-04-16T17:09:56.832Z,101122.88
2023-04-16T17:15:04.778Z,101133.72
2023-04-16T17:20:07.789Z,101136.38
2023-04-16T17:25:14.192Z,101129.13
2023-04-16T17:30:17.785Z,101138.63
2023-04-16T17:35:24.196Z,101135.81
2023-04-16T17:40:27.398Z,101152.03
2023-04-16T17:45:31.579Z,101154.59
2023-04-16T17:50:38.960Z,101161.06
2023-04-16T17:55:54.537Z,101163.56
2023-04-16T18:00:57.818Z,101162.56
2023-04-16T18:06:01.946Z,101173.41
2023-04-16T18:11:08.382Z,101182.97
2023-04-16T18:16:14.119Z,101182.59
2023-04-16T18:21:20.955Z,101174.84
2023-04-16T18:26:29.912Z,101201.84
2023-04-16T18:31:34.364Z,101203.28
2023-04-16T18:36:36.167Z,101202.25
2023-04-16T18:41:45.200Z,101212.16
2023-04-16T18:46:52.863Z,101217.72
2023-04-16T18:52:00.501Z,101221.84
2023-04-16T18:57:08.148Z,101220.41
2023-04-16T19:02:09.864Z,101220.94
2023-04-16T19:07:13.701Z,101222.47
2023-04-16T19:12:19.957Z,101224.00
2023-04-16T19:17:25.452Z,101230.16
2023-04-16T19:22:33.840Z,101233.25
2023-04-16T19:27:40.329Z,101236.22
2023-04-16T19:32:56.036Z,101241.25
2023-04-16T19:38:02.790Z,101239.53
2023-04-16T19:43:05.967Z,101248.69
2023-04-16T19:48:22.628Z,101246.25
2023-04-16T19:53:24.352Z,101243.41
2023-04-16T19:58:32.465Z,101243.25
2023-04-16T20:03:36.159Z,101253.47
2023-04-16T20:08:40.218Z,101245.34
2023-04-16T20:13:46.044Z,101254.63
2023-04-16T20:18:47.738Z,101256.41
2023-04-16T20:23:49.526Z,101268.16
2023-04-16T20:28:57.289Z,101269.56
2023-04-16T20:34:02.610Z,101270.19
2023-04-16T20:39:06.722Z,101262.16
2023-04-16T20:44:11.412Z,101262.84
2023-04-16T20:49:20.286Z,101269.13
2023-04-16T20:54:27.672Z,101266.00
2023-04-16T20:59:37.801Z,101260.41
2023-04-16T21:04:45.176Z,101259.94
2023-04-16T21:09:47.006Z,101263.16
2023-04-16T21:14:54.948Z,101261.31
2023-04-16T21:20:05.774Z,101260.22
2023-04-16T21:25:09.048Z,101261.31
2023-04-16T21:30:15.448Z,101269.06
2023-04-16T21:35:18.788Z,101267.25
2023-04-16T21:40:22.627Z,101277.72
2023-04-16T21:45:25.699Z,101271.84
2023-04-16T21:50:32.452Z,101273.94
2023-04-16T21:55:34.078Z,101270.34
2023-04-16T22:00:43.736Z,101267.41
2023-04-16T22:05:51.120Z,101269.84
2023-04-16T22:10:56.654Z,101263.81
2023-04-16T22:16:00.127Z,101266.00
2023-04-16T22:21:10.825Z,101269.59
2023-04-16T22:26:14.162Z,101260.41
2023-04-16T22:31:21.949Z,101255.88
2023-04-16T22:36:29.307Z,101265.25
2023-04-16T22:41:30.954Z,101262.31
2023-04-16T22:46:42.754Z,101263.78
2023-04-16T22:51:51.471Z,101270.34
2023-04-16T22:56:53.092Z,101264.50
2023-04-16T23:01:56.145Z,101269.69
2023-04-16T23:07:00.833Z,101262.28
2023-04-16T23:12:04.367Z,101263.81
2023-04-16T23:17:07.566Z,101270.03
2023-04-16T23:22:14.578Z,101268.41
2023-04-16T23:27:19.854Z,101269.59
2023-04-16T23:32:28.777Z,101264.09
2023-04-16T23:37:30.506Z,101261.66
2023-04-16T23:42:33.842Z,101261.53
2023-04-16T23:47:46.195Z,101254.13
2023-04-16T23:52:49.906Z,101257.44
2023-04-16T23:57:51.500Z,101259.44
